Time;durP1;ratioP1;P1;durP2;ratioP2;P2;SDS_P1;SDS_P2;PMS_P1;PMS_P2;Temp;Humidity;BMP_temperature;BMP_pressure;BME280_temperature;BME280_humidity;BME280_pressure;Samples;Min_cycle;Max_cycle;Signal;HPM_P1;HPM_P2
2023/12/30 00:00:42;;;;;;;0.25;0.25;;;;;;;5.86;100.00;95996.19;6167789;23;20421;-76
2023/12/30 00:03:28;;;;;;;0.30;0.30;;;;;;;5.84;100.00;95992.16;6168912;23;20088;-76
2023/12/30 00:06:19;;;;;;;0.20;0.20;;;;;;;5.84;100.00;96000.94;6170131;23;20091;-74
2023/12/30 00:09:05;;;;;;;0.20;0.20;;;;;;;5.84;100.00;95998.28;6166423;23;20039;-72
2023/12/30 00:11:53;;;;;;;0.20;0.20;;;;;;;5.91;100.00;96003.50;6168070;23;20021;-73
2023/12/30 00:14:39;;;;;;;0.20;0.20;;;;;;;5.85;100.00;96007.88;6167813;23;20021;-72
2023/12/30 00:17:24;;;;;;;0.20;0.20;;;;;;;5.83;100.00;96007.25;6168457;23;20086;-73
2023/12/30 00:20:10;;;;;;;0.20;0.20;;;;;;;5.85;100.00;96015.84;6168183;23;20507;-72
2023/12/30 00:22:56;;;;;;;0.20;0.20;;;;;;;5.82;100.00;96005.66;6164873;23;20456;-73
2023/12/30 00:25:42;;;;;;;0.20;0.20;;;;;;;5.82;100.00;96004.84;6170016;23;20079;-75
2023/12/30 00:28:28;;;;;;;0.20;0.20;;;;;;;5.81;100.00;96014.66;6168726;23;20021;-72
2023/12/30 00:31:25;;;;;;;0.20;0.20;;;;;;;5.82;100.00;96023.44;6144126;23;20870;-76
2023/12/30 00:34:12;;;;;;;0.20;0.20;;;;;;;5.83;100.00;96017.06;6147104;23;20807;-73
2023/12/30 00:36:58;;;;;;;0.20;0.20;;;;;;;5.84;100.00;96021.38;6144209;23;20091;-72
2023/12/30 00:39:44;;;;;;;0.28;0.28;;;;;;;5.77;100.00;96018.81;6144201;23;20025;-76
2023/12/30 00:42:32;;;;;;;0.20;0.20;;;;;;;5.73;100.00;96025.63;6147126;23;20063;-76
2023/12/30 00:45:18;;;;;;;0.20;0.20;;;;;;;5.79;100.00;96031.88;6146865;23;20400;-74
2023/12/30 00:48:03;;;;;;;0.17;0.17;;;;;;;5.84;100.00;96024.03;6166252;23;20028;-75
2023/12/30 00:50:49;;;;;;;0.30;0.30;;;;;;;5.84;100.00;96018.72;6168067;23;20167;-75
2023/12/30 00:53:35;;;;;;;0.10;0.10;;;;;;;5.83;100.00;96036.47;6167461;23;20210;-71
2023/12/30 00:56:21;;;;;;;0.20;0.20;;;;;;;5.79;100.00;96032.66;6145801;23;20025;-72
2023/12/30 00:59:07;;;;;;;0.20;0.20;;;;;;;5.81;100.00;96035.09;6167546;23;20431;-72
2023/12/30 01:01:53;;;;;;;0.20;0.20;;;;;;;5.81;100.00;96035.09;6143574;23;20075;-72
2023/12/30 01:04:39;;;;;;;0.20;0.20;;;;;;;5.80;100.00;96044.91;6145158;23;20024;-72
2023/12/30 01:07:25;;;;;;;0.20;0.20;;;;;;;5.78;100.00;96043.53;6169904;23;20020;-71
2023/12/30 01:10:10;;;;;;;0.20;0.20;;;;;;;5.74;100.00;96034.38;6145773;23;20342;-72
2023/12/30 01:12:56;;;;;;;0.20;0.20;;;;;;;5.72;100.00;96031.16;6143334;23;20021;-71
2023/12/30 01:15:42;;;;;;;0.20;0.20;;;;;;;5.69;100.00;96047.56;6167261;23;20504;-75
2023/12/30 01:18:28;;;;;;;0.20;0.20;;;;;;;5.71;100.00;96053.44;6144772;23;20448;-72
2023/12/30 01:21:14;;;;;;;0.20;0.20;;;;;;;5.66;100.00;96054.09;6169263;23;20444;-74
2023/12/30 01:24:00;;;;;;;0.20;0.20;;;;;;;5.67;100.00;96071.66;6166907;23;20329;-74
2023/12/30 01:26:46;;;;;;;0.20;0.20;;;;;;;5.64;100.00;96058.03;6168815;23;20016;-75
2023/12/30 01:29:32;;;;;;;0.20;0.20;;;;;;;5.66;100.00;96056.75;6169588;23;20107;-75
2023/12/30 01:32:17;;;;;;;0.20;0.20;;;;;;;5.66;100.00;96063.91;6167753;23;20021;-74
2023/12/30 01:35:06;;;;;;;0.20;0.20;;;;;;;5.68;100.00;96067.97;6169210;23;20023;-73
2023/12/30 01:37:52;;;;;;;0.20;0.20;;;;;;;5.66;100.00;96066.56;6166624;23;20021;-76
2023/12/30 01:40:38;;;;;;;0.20;0.20;;;;;;;5.61;100.00;96077.88;6167742;23;20036;-76
2023/12/30 01:43:29;;;;;;;0.20;0.20;;;;;;;5.62;100.00;96086.66;6144791;23;20555;-75
2023/12/30 01:46:15;;;;;;;0.30;0.30;;;;;;;5.50;100.00;96081.28;6167567;23;20021;-73
2023/12/30 01:49:01;;;;;;;0.20;0.20;;;;;;;5.52;100.00;96080.03;6145062;23;20021;-76
2023/12/30 01:51:49;;;;;;;0.25;0.25;;;;;;;5.55;100.00;96086.75;6146820;23;20029;-74
2023/12/30 01:54:36;;;;;;;0.20;0.20;;;;;;;5.46;100.00;96086.25;6169441;23;20020;-74
2023/12/30 01:57:22;;;;;;;0.20;0.20;;;;;;;5.48;100.00;96099.28;6167880;23;20309;-72
2023/12/30 02:00:10;;;;;;;0.20;0.20;;;;;;;5.49;100.00;96099.06;6146130;23;20465;-74
2023/12/30 02:03:00;;;;;;;0.20;0.20;;;;;;;5.50;100.00;96094.56;6145354;23;20594;-74
2023/12/30 02:05:47;;;;;;;0.20;0.20;;;;;;;5.45;100.00;96102.41;6167021;23;20083;-73
2023/12/30 02:08:33;;;;;;;0.20;0.20;;;;;;;5.34;100.00;96090.69;6167616;23;20025;-76
2023/12/30 02:11:20;;;;;;;0.20;0.20;;;;;;;5.11;100.00;96099.34;6146282;23;20031;-73
2023/12/30 02:14:25;;;;;;;0.20;0.20;;;;;;;4.96;100.00;96106.88;6165595;23;20021;-73
2023/12/30 02:17:11;;;;;;;0.20;0.20;;;;;;;4.99;100.00;96090.53;6166875;23;20024;-72
2023/12/30 02:19:57;;;;;;;0.20;0.20;;;;;;;4.98;100.00;96096.84;6144005;23;20503;-74
2023/12/30 02:22:47;;;;;;;0.20;0.20;;;;;;;5.04;100.00;96098.59;6143994;23;20016;-76
2023/12/30 02:25:33;;;;;;;0.20;0.20;;;;;;;5.06;100.00;96091.25;6167701;23;20017;-73
2023/12/30 02:28:19;;;;;;;0.20;0.20;;;;;;;5.17;100.00;96106.41;6167140;23;20049;-74
2023/12/30 02:31:05;;;;;;;0.20;0.20;;;;;;;5.18;100.00;96099.25;6143208;23;20021;-76
2023/12/30 02:33:51;;;;;;;0.20;0.20;;;;;;;5.20;100.00;96094.53;6143097;23;20021;-75
2023/12/30 02:36:37;;;;;;;0.30;0.30;;;;;;;5.17;100.00;96102.97;6146623;23;20028;-73
2023/12/30 02:39:23;;;;;;;0.20;0.20;;;;;;;5.18;100.00;96099.25;6125907;23;20057;-74
2023/12/30 02:42:09;;;;;;;0.20;0.20;;;;;;;5.11;100.00;96102.00;6168803;23;20044;-74
2023/12/30 02:44:55;;;;;;;0.20;0.20;;;;;;;4.98;100.00;96100.31;6168707;23;20459;-75
2023/12/30 02:47:42;;;;;;;0.20;0.20;;;;;;;4.86;100.00;96090.66;6148226;23;20056;-74
2023/12/30 02:50:28;;;;;;;0.20;0.20;;;;;;;4.73;100.00;96097.72;6167816;23;20051;-73
2023/12/30 02:53:14;;;;;;;0.20;0.20;;;;;;;4.68;100.00;96120.63;6145118;23;20024;-74
2023/12/30 02:55:59;;;;;;;0.20;0.20;;;;;;;4.61;100.00;96110.09;6147408;23;20021;-75
2023/12/30 02:58:49;;;;;;;0.20;0.20;;;;;;;4.62;100.00;96110.91;6168163;23;20029;-76
2023/12/30 03:01:37;;;;;;;0.20;0.20;;;;;;;4.69;100.00;96101.84;6147448;23;20029;-75
2023/12/30 03:04:25;;;;;;;0.20;0.20;;;;;;;4.79;100.00;96103.19;6145920;23;20448;-75
2023/12/30 03:07:11;;;;;;;0.30;0.30;;;;;;;4.83;100.00;96117.63;6170735;23;20032;-75
2023/12/30 03:09:57;;;;;;;0.20;0.20;;;;;;;4.82;100.00;96108.03;6169929;23;20029;-74
2023/12/30 03:12:43;;;;;;;0.20;0.20;;;;;;;4.89;100.00;96106.94;6147380;23;20109;-75
2023/12/30 03:15:29;;;;;;;0.10;0.10;;;;;;;4.91;100.00;96102.25;6170897;23;20104;-73
2023/12/30 03:18:15;;;;;;;0.20;0.20;;;;;;;5.00;100.00;96113.34;6147390;23;20021;-76
2023/12/30 03:21:01;;;;;;;0.20;0.20;;;;;;;4.93;100.00;96124.03;6169746;23;20472;-74
2023/12/30 03:23:47;;;;;;;0.25;0.25;;;;;;;4.83;100.00;96118.44;6169368;23;20036;-77
2023/12/30 03:26:33;;;;;;;0.20;0.20;;;;;;;4.81;100.00;96124.97;6168305;23;20067;-74
2023/12/30 03:29:20;;;;;;;0.20;0.20;;;;;;;4.80;100.00;96123.34;6168585;23;20136;-73
2023/12/30 03:32:06;;;;;;;0.20;0.20;;;;;;;4.70;100.00;96124.69;6146157;23;20388;-75
2023/12/30 03:34:52;;;;;;;0.20;0.20;;;;;;;4.59;100.00;96122.75;6144973;23;20437;-73
2023/12/30 03:37:38;;;;;;;0.25;0.25;;;;;;;4.62;100.00;96132.91;6169860;23;20027;-74
2023/12/30 03:40:24;;;;;;;0.20;0.20;;;;;;;4.63;100.00;96131.88;6144580;23;20029;-74
2023/12/30 03:43:10;;;;;;;0.20;0.20;;;;;;;4.69;100.00;96131.00;6144963;23;20526;-74
2023/12/30 03:45:56;;;;;;;0.20;0.20;;;;;;;4.77;100.00;96137.88;6146118;23;20031;-77
2023/12/30 03:48:41;;;;;;;0.20;0.20;;;;;;;4.89;100.00;96136.09;6146182;23;20100;-77
2023/12/30 03:51:27;;;;;;;0.10;0.10;;;;;;;4.98;100.00;96147.22;6170522;23;20336;-74
2023/12/30 03:54:13;;;;;;;0.20;0.20;;;;;;;5.02;100.00;96141.28;6145921;23;20108;-77
2023/12/30 03:56:59;;;;;;;0.28;0.28;;;;;;;5.04;100.00;96143.69;6167913;23;20024;-74
2023/12/30 03:59:45;;;;;;;0.30;0.30;;;;;;;5.07;100.00;96137.16;6146200;23;20056;-74
2023/12/30 04:02:31;;;;;;;0.10;0.10;;;;;;;5.03;100.00;96137.56;6147312;23;20013;-72
2023/12/30 04:05:17;;;;;;;0.20;0.20;;;;;;;5.03;100.00;96142.06;6146704;23;20027;-72
2023/12/30 04:08:04;;;;;;;0.20;0.20;;;;;;;5.03;100.00;96136.78;6144979;23;20071;-73
2023/12/30 04:10:50;;;;;;;0.20;0.20;;;;;;;4.98;100.00;96131.31;6166677;23;20518;-76
2023/12/30 04:13:36;;;;;;;0.10;0.10;;;;;;;5.03;100.00;96142.06;6168547;23;20100;-75
2023/12/30 04:16:21;;;;;;;0.20;0.20;;;;;;;5.00;100.00;96139.88;6145555;23;20355;-73
2023/12/30 04:19:07;;;;;;;0.20;0.20;;;;;;;5.01;100.00;96146.81;6144344;23;20363;-73
2023/12/30 04:21:55;;;;;;;0.20;0.20;;;;;;;5.00;100.00;96143.34;6146609;23;20028;-75
2023/12/30 04:24:41;;;;;;;0.20;0.20;;;;;;;5.02;100.00;96143.09;6146355;23;20017;-76
2023/12/30 04:27:27;;;;;;;0.20;0.20;;;;;;;4.83;100.00;96147.59;6146287;23;20447;-72
2023/12/30 04:30:13;;;;;;;0.20;0.20;;;;;;;4.66;100.00;96149.19;6144481;23;20028;-74
2023/12/30 04:33:01;;;;;;;0.20;0.20;;;;;;;4.64;100.00;96145.94;6167810;23;20025;-74
2023/12/30 04:35:47;;;;;;;0.20;0.20;;;;;;;4.64;100.00;96140.66;6146588;23;20028;-75
2023/12/30 04:38:33;;;;;;;0.20;0.20;;;;;;;4.58;100.00;96147.63;6168415;23;20021;-77
2023/12/30 04:41:19;;;;;;;0.20;0.20;;;;;;;4.53;100.00;96149.31;6168573;23;20052;-74
2023/12/30 04:44:05;;;;;;;0.20;0.20;;;;;;;4.58;100.00;96147.63;6145687;23;20116;-72
2023/12/30 04:46:51;;;;;;;0.20;0.20;;;;;;;4.73;100.00;96153.38;6144346;23;20025;-74
2023/12/30 04:49:37;;;;;;;0.20;0.20;;;;;;;4.73;100.00;96158.69;6144795;23;20029;-73
2023/12/30 04:52:24;;;;;;;0.10;0.10;;;;;;;4.78;100.00;96159.88;6145283;23;20025;-75
2023/12/30 04:55:10;;;;;;;0.20;0.20;;;;;;;4.81;100.00;96146.19;6146593;23;20024;-72
2023/12/30 04:57:57;;;;;;;0.20;0.20;;;;;;;4.79;100.00;96150.91;6143895;23;20031;-76
2023/12/30 05:00:43;;;;;;;0.20;0.20;;;;;;;4.75;100.00;96139.94;6165456;23;20119;-74
2023/12/30 05:03:28;;;;;;;0.20;0.20;;;;;;;4.77;100.00;96150.31;6171624;23;20021;-73
2023/12/30 05:06:19;;;;;;;0.20;0.20;;;;;;;4.84;100.00;96164.31;6147616;23;20021;-74
2023/12/30 05:09:05;;;;;;;0.20;0.20;;;;;;;4.88;100.00;96157.53;6169434;23;20021;-74
2023/12/30 05:11:51;;;;;;;0.20;0.20;;;;;;;4.87;100.00;96151.44;6171108;23;20241;-74
2023/12/30 05:14:37;;;;;;;0.30;0.30;;;;;;;4.89;100.00;96145.91;6170794;23;20036;-72
2023/12/30 05:17:23;;;;;;;0.30;0.30;;;;;;;4.82;100.00;96148.59;6170200;23;20108;-73
2023/12/30 05:20:10;;;;;;;0.20;0.20;;;;;;;4.85;100.00;96158.78;6171142;23;20035;-73
2023/12/30 05:23:00;;;;;;;0.20;0.20;;;;;;;4.90;100.00;96164.25;6169973;23;20414;-73
2023/12/30 05:25:46;;;;;;;0.20;0.20;;;;;;;4.97;100.00;96172.13;6170685;23;20025;-75
2023/12/30 05:28:32;;;;;;;0.20;0.20;;;;;;;4.89;100.00;96153.84;6148136;23;20048;-76
2023/12/30 05:31:18;;;;;;;0.10;0.10;;;;;;;4.79;100.00;96167.63;6171626;23;20100;-73
2023/12/30 05:34:04;;;;;;;0.30;0.30;;;;;;;4.72;100.00;96170.31;6171307;23;20021;-74
2023/12/30 05:36:50;;;;;;;0.10;0.10;;;;;;;4.68;100.00;96168.34;6169748;23;20017;-74
2023/12/30 05:39:36;;;;;;;0.20;0.20;;;;;;;4.54;100.00;96190.69;6170248;23;20024;-76
2023/12/30 05:42:22;;;;;;;0.20;0.20;;;;;;;4.53;100.00;96181.94;6170207;23;20288;-75
2023/12/30 05:45:08;;;;;;;0.20;0.20;;;;;;;4.61;100.00;96178.19;6169243;23;20124;-76
2023/12/30 05:47:54;;;;;;;0.10;0.10;;;;;;;4.62;100.00;96180.63;6169567;23;20017;-77
2023/12/30 05:50:40;;;;;;;0.17;0.17;;;;;;;4.63;100.00;96174.28;6169970;23;20024;-74
2023/12/30 05:53:27;;;;;;;0.20;0.20;;;;;;;4.69;100.00;96191.16;6168670;23;20340;-73
2023/12/30 05:56:23;;;;;;;0.20;0.20;;;;;;;4.76;100.00;96181.31;6169358;23;20468;-74
2023/12/30 05:59:09;;;;;;;0.20;0.20;;;;;;;4.81;100.00;96183.28;6169279;23;20033;-74
2023/12/30 06:01:58;;;;;;;0.20;0.20;;;;;;;4.73;100.00;96182.56;6169340;23;20412;-74
2023/12/30 06:04:44;;;;;;;0.25;0.25;;;;;;;4.78;100.00;96197.00;6148344;23;20021;-73
2023/12/30 06:07:30;;;;;;;0.30;0.30;;;;;;;4.80;100.00;96189.63;6171366;23;20028;-75
2023/12/30 06:10:15;;;;;;;0.20;0.20;;;;;;;4.75;100.00;96196.41;6169588;23;20021;-73
2023/12/30 06:13:01;;;;;;;0.20;0.20;;;;;;;4.69;100.00;96202.59;6147483;23;20087;-75
2023/12/30 06:15:49;;;;;;;0.20;0.20;;;;;;;4.73;100.00;96200.28;6169789;23;20029;-75
2023/12/30 06:18:35;;;;;;;0.20;0.20;;;;;;;4.72;100.00;96204.78;6170381;23;20730;-73
2023/12/30 06:21:21;;;;;;;0.20;0.20;;;;;;;4.81;100.00;96209.81;6171207;23;20121;-73
2023/12/30 06:24:07;;;;;;;0.20;0.20;;;;;;;4.91;100.00;96213.59;6169525;23;20470;-74
2023/12/30 06:26:53;;;;;;;0.20;0.20;;;;;;;4.96;100.00;96210.28;6171283;23;20052;-75
2023/12/30 06:29:39;;;;;;;0.20;0.20;;;;;;;4.96;100.00;96221.69;6171924;23;20025;-75
2023/12/30 06:32:24;;;;;;;0.25;0.25;;;;;;;4.94;100.00;96209.69;6170808;23;20029;-77
2023/12/30 06:35:10;;;;;;;0.20;0.20;;;;;;;4.99;100.00;96223.13;6170616;23;20053;-76
2023/12/30 06:37:56;;;;;;;0.20;0.20;;;;;;;4.98;100.00;96219.66;6171351;23;20132;-73
2023/12/30 06:40:43;;;;;;;0.30;0.30;;;;;;;4.93;100.00;96231.94;6171338;23;20027;-72
2023/12/30 06:43:28;;;;;;;0.20;0.20;;;;;;;4.94;100.00;96237.03;6147961;23;20028;-72
2023/12/30 06:46:18;;;;;;;0.30;0.30;;;;;;;4.96;100.00;96247.41;6171826;23;20053;-73
2023/12/30 06:49:04;;;;;;;0.20;0.20;;;;;;;4.96;100.00;96242.91;6166364;23;20060;-73
2023/12/30 06:51:52;;;;;;;0.20;0.20;;;;;;;4.93;100.00;96232.75;6146452;23;20784;-72
2023/12/30 06:54:40;;;;;;;0.30;0.30;;;;;;;4.98;100.00;96253.28;6169833;23;20072;-72
2023/12/30 06:57:26;;;;;;;0.20;0.20;;;;;;;4.96;100.00;96242.09;6169475;23;20021;-71
2023/12/30 07:00:12;;;;;;;0.20;0.20;;;;;;;4.87;100.00;96240.75;6168454;23;20059;-72
2023/12/30 07:02:58;;;;;;;0.20;0.20;;;;;;;4.85;100.00;96248.13;6166940;23;20368;-74
2023/12/30 07:05:44;;;;;;;0.20;0.20;;;;;;;4.84;100.00;96246.50;6170005;23;20100;-73
2023/12/30 07:08:30;;;;;;;0.30;0.30;;;;;;;4.81;100.00;96241.63;6170520;23;20240;-73
2023/12/30 07:11:18;;;;;;;0.20;0.20;;;;;;;4.79;100.00;96263.06;6166957;23;20480;-72
2023/12/30 07:14:04;;;;;;;0.20;0.20;;;;;;;4.74;100.00;96258.38;6168964;23;20053;-72
2023/12/30 07:16:50;;;;;;;0.25;0.25;;;;;;;4.75;100.00;96268.00;6169546;23;20095;-73
2023/12/30 07:19:36;;;;;;;0.20;0.20;;;;;;;4.79;100.00;96272.84;6167256;23;20017;-72
2023/12/30 07:22:22;;;;;;;0.20;0.20;;;;;;;4.64;100.00;96258.06;6171295;23;20080;-74
2023/12/30 07:25:10;;;;;;;0.20;0.20;;;;;;;4.48;100.00;96259.41;6172477;23;20029;-73
2023/12/30 07:27:56;;;;;;;0.30;0.30;;;;;;;4.57;100.00;96269.75;6169148;23;20025;-77
2023/12/30 07:30:42;;;;;;;0.20;0.20;;;;;;;4.59;100.00;96265.88;6145679;23;20678;-77
2023/12/30 07:33:27;;;;;;;0.20;0.20;;;;;;;4.69;100.00;96286.59;6172081;23;20025;-74
2023/12/30 07:36:13;;;;;;;0.20;0.20;;;;;;;4.70;100.00;96283.72;6171359;23;20017;-75
2023/12/30 07:38:59;;;;;;;0.20;0.20;;;;;;;4.73;100.00;96280.63;6170515;23;20067;-77
2023/12/30 07:41:45;;;;;;;0.30;0.30;;;;;;;4.78;100.00;96285.28;6171325;23;20021;-76
2023/12/30 07:44:37;;;;;;;0.20;0.20;;;;;;;4.75;100.00;96291.84;6149826;23;20021;-76
2023/12/30 07:47:25;;;;;;;0.30;0.30;;;;;;;4.77;100.00;96288.97;6170813;23;20021;-76
2023/12/30 07:50:11;;;;;;;0.30;0.30;;;;;;;4.77;100.00;96288.16;6171263;23;20029;-75
2023/12/30 07:52:57;;;;;;;0.20;0.20;;;;;;;4.68;100.00;96295.56;6169936;23;20025;-75
2023/12/30 07:55:43;;;;;;;0.20;0.20;;;;;;;4.49;100.00;96292.03;6171968;23;20475;-75
2023/12/30 07:58:29;;;;;;;0.30;0.30;;;;;;;4.46;100.00;96282.66;6170335;23;20477;-76
2023/12/30 08:01:15;;;;;;;0.30;0.30;;;;;;;4.54;100.00;96281.59;6169903;23;20021;-79
2023/12/30 08:04:01;;;;;;;0.20;0.20;;;;;;;4.59;100.00;96287.09;6170144;23;20048;-78
2023/12/30 08:06:46;;;;;;;0.20;0.20;;;;;;;4.55;100.00;96291.16;6171191;23;20205;-77
2023/12/30 08:09:32;;;;;;;0.17;0.17;;;;;;;4.52;100.00;96288.16;6168126;23;20025;-77
2023/12/30 08:12:18;;;;;;;0.30;0.30;;;;;;;4.52;100.00;96288.97;6170503;23;20021;-75
2023/12/30 08:15:05;;;;;;;0.30;0.30;;;;;;;4.45;100.00;96294.31;6172006;23;20094;-76
2023/12/30 08:17:51;;;;;;;0.30;0.30;;;;;;;4.45;100.00;96301.44;6171234;23;20021;-76
2023/12/30 08:20:37;;;;;;;0.20;0.20;;;;;;;4.41;100.00;96294.94;6169229;23;20029;-76
2023/12/30 08:23:23;;;;;;;0.20;0.20;;;;;;;4.37;100.00;96309.66;6170434;23;20036;-75
2023/12/30 08:26:08;;;;;;;0.20;0.20;;;;;;;4.42;100.00;96307.16;6169729;23;20445;-75
2023/12/30 08:28:54;;;;;;;0.22;0.22;;;;;;;4.45;100.00;96315.50;6169783;23;20455;-74
2023/12/30 08:31:45;;;;;;;0.22;0.22;;;;;;;4.56;100.00;96318.47;6172075;23;20434;-76
2023/12/30 08:34:31;;;;;;;0.30;0.30;;;;;;;4.60;100.00;96320.50;6149942;23;20544;-79
2023/12/30 08:37:17;;;;;;;0.20;0.20;;;;;;;4.67;100.00;96305.38;6168003;23;20025;-78
2023/12/30 08:40:08;;;;;;;0.20;0.20;;;;;;;4.73;100.00;96317.75;6168713;23;20561;-75
2023/12/30 08:42:54;;;;;;;0.20;0.20;;;;;;;4.74;100.00;96311.41;6169870;23;20460;-76
2023/12/30 08:45:39;;;;;;;0.30;0.30;;;;;;;4.94;100.00;96327.19;6170317;23;20321;-76
2023/12/30 08:48:25;;;;;;;0.20;0.20;;;;;;;4.91;100.00;96329.47;6169373;23;20273;-77
2023/12/30 08:51:13;;;;;;;0.20;0.20;;;;;;;4.90;100.00;96328.66;6170101;23;20542;-76
2023/12/30 08:53:59;;;;;;;0.20;0.20;;;;;;;4.95;100.00;96320.84;6151298;23;20492;-76
2023/12/30 08:56:45;;;;;;;0.20;0.20;;;;;;;5.02;100.00;96328.75;6172431;23;20032;-76
2023/12/30 08:59:31;;;;;;;0.20;0.20;;;;;;;4.93;100.00;96319.44;6169159;23;20024;-75
2023/12/30 09:02:17;;;;;;;0.28;0.28;;;;;;;5.07;100.00;96344.03;6172451;23;20021;-75
2023/12/30 09:05:05;;;;;;;0.30;0.30;;;;;;;5.11;100.00;96347.84;6169846;23;20024;-72
2023/12/30 09:07:51;;;;;;;0.30;0.30;;;;;;;5.19;100.00;96343.09;6147531;23;20048;-72
2023/12/30 09:10:38;;;;;;;0.30;0.30;;;;;;;5.19;100.00;96335.13;6169627;23;20025;-74
2023/12/30 09:13:24;;;;;;;0.20;0.20;;;;;;;5.36;100.00;96340.69;6171911;23;20025;-75
2023/12/30 09:16:10;;;;;;;0.20;0.20;;;;;;;5.47;100.00;96352.47;6172239;23;20028;-75
2023/12/30 09:18:56;;;;;;;0.20;0.20;;;;;;;5.58;100.00;96355.19;6150304;23;20025;-75
2023/12/30 09:21:42;;;;;;;0.20;0.20;;;;;;;5.68;100.00;96359.19;6171334;23;20096;-75
2023/12/30 09:24:28;;;;;;;0.25;0.25;;;;;;;5.74;100.00;96358.31;6172151;23;20087;-76
2023/12/30 09:27:14;;;;;;;0.30;0.30;;;;;;;5.71;100.00;96364.88;6170562;23;20064;-75
2023/12/30 09:30:00;;;;;;;0.30;0.30;;;;;;;5.73;100.00;96359.34;6169611;23;20021;-78
2023/12/30 09:32:48;;;;;;;0.20;0.20;;;;;;;5.80;100.00;96354.78;6167698;23;20024;-77
2023/12/30 09:35:34;;;;;;;0.20;0.20;;;;;;;6.03;100.00;96370.09;6168214;23;20027;-77
2023/12/30 09:38:23;;;;;;;0.30;0.30;;;;;;;6.25;100.00;96368.59;6168364;23;20322;-75
2023/12/30 09:41:09;;;;;;;0.20;0.20;;;;;;;6.23;100.00;96375.19;6168024;23;20040;-74
2023/12/30 09:43:59;;;;;;;0.20;0.20;;;;;;;6.17;100.00;96378.72;6166658;23;20021;-75
2023/12/30 09:46:47;;;;;;;0.20;0.20;;;;;;;6.19;100.00;96381.97;6169206;23;20025;-75
2023/12/30 09:49:35;;;;;;;0.20;0.20;;;;;;;6.51;100.00;96380.72;6146316;23;20027;-75
2023/12/30 09:52:21;;;;;;;0.20;0.20;;;;;;;6.65;100.00;96386.69;6170041;23;20064;-74
2023/12/30 09:55:07;;;;;;;0.20;0.20;;;;;;;7.32;100.00;96389.22;6170152;23;20120;-73
2023/12/30 09:57:53;;;;;;;0.20;0.20;;;;;;;6.94;100.00;96391.19;6147006;23;20021;-74
2023/12/30 10:00:41;;;;;;;0.30;0.30;;;;;;;6.64;100.00;96398.38;6169847;23;20016;-77
2023/12/30 10:03:28;;;;;;;0.10;0.10;;;;;;;6.63;100.00;96399.41;6169158;23;20021;-75
2023/12/30 10:06:15;;;;;;;0.20;0.20;;;;;;;6.41;100.00;96386.59;6172066;23;20021;-74
2023/12/30 10:09:01;;;;;;;0.20;0.20;;;;;;;6.51;100.00;96393.22;6169235;23;20127;-74
2023/12/30 10:11:49;;;;;;;0.20;0.20;;;;;;;6.75;100.00;96394.94;6170305;23;20083;-75
2023/12/30 10:14:35;;;;;;;0.30;0.30;;;;;;;6.45;100.00;96399.41;6170225;23;20025;-77
2023/12/30 10:17:21;;;;;;;0.20;0.20;;;;;;;6.43;100.00;96395.16;6169886;23;20462;-75
2023/12/30 10:20:08;;;;;;;0.30;0.30;;;;;;;6.64;100.00;96390.41;6169711;23;20032;-77
2023/12/30 10:22:54;;;;;;;0.30;0.30;;;;;;;6.70;100.00;96385.00;6169660;23;20083;-74
2023/12/30 10:25:41;;;;;;;0.20;0.20;;;;;;;6.74;100.00;96392.50;6170973;23;20025;-74
2023/12/30 10:28:27;;;;;;;0.30;0.30;;;;;;;6.97;100.00;96396.06;6171095;23;20025;-74
2023/12/30 10:31:16;;;;;;;0.20;0.20;;;;;;;7.13;100.00;96383.13;6167243;23;20340;-76
2023/12/30 10:34:05;;;;;;;0.30;0.30;;;;;;;7.79;100.00;96387.38;6169368;23;20028;-75
2023/12/30 10:36:52;;;;;;;0.20;0.20;;;;;;;8.02;100.00;96392.69;6169836;23;20040;-74
2023/12/30 10:39:41;;;;;;;0.20;0.20;;;;;;;8.00;100.00;96383.28;6170069;23;20472;-75
2023/12/30 10:42:27;;;;;;;0.30;0.30;;;;;;;7.86;100.00;96385.41;6170320;23;20148;-74
2023/12/30 10:45:13;;;;;;;0.20;0.20;;;;;;;7.77;100.00;96382.25;6171745;23;20021;-74
2023/12/30 10:48:00;;;;;;;0.30;0.30;;;;;;;7.78;100.00;96364.44;6170963;23;20121;-75
2023/12/30 10:50:48;;;;;;;0.20;0.20;;;;;;;7.98;100.00;96366.72;6150463;23;20464;-74
2023/12/30 10:53:39;;;;;;;0.20;0.20;;;;;;;8.68;100.00;96363.09;6170171;23;20619;-75
2023/12/30 10:56:29;;;;;;;0.40;0.40;;;;;;;9.29;100.00;96372.19;6149898;23;20028;-78
2023/12/30 10:59:18;;;;;;;0.30;0.30;;;;;;;10.07;100.00;96365.88;6128781;23;20028;-75
2023/12/30 11:02:04;;;;;;;0.20;0.20;;;;;;;11.26;100.00;96356.22;6170817;23;20021;-75
2023/12/30 11:04:51;;;;;;;0.30;0.30;;;;;;;12.75;100.00;96349.56;6171702;23;20075;-77
2023/12/30 11:07:37;;;;;;;0.20;0.20;;;;;;;14.55;100.00;96354.59;6171386;23;20379;-76
2023/12/30 11:10:23;;;;;;;0.20;0.20;;;;;;;12.71;100.00;96351.19;6171566;23;20032;-75
2023/12/30 11:13:09;;;;;;;0.20;0.20;;;;;;;10.64;100.00;96354.81;6172030;23;20031;-78
2023/12/30 11:16:11;;;;;;;0.30;0.30;;;;;;;9.77;100.00;96353.69;6173413;23;20025;-77
2023/12/30 11:18:58;;;;;;;0.20;0.20;;;;;;;9.76;100.00;96367.31;6171392;23;20202;-75
2023/12/30 11:21:46;;;;;;;0.25;0.25;;;;;;;9.12;100.00;96348.97;6171814;23;20017;-74
2023/12/30 11:24:33;;;;;;;0.30;0.30;;;;;;;10.27;100.00;96360.00;6172168;23;20078;-74
2023/12/30 11:27:22;;;;;;;0.20;0.20;;;;;;;10.36;100.00;96352.38;6170061;23;20100;-75
2023/12/30 11:30:23;;;;;;;0.20;0.20;;;;;;;9.55;100.00;96368.84;6170816;23;20032;-75
2023/12/30 11:33:10;;;;;;;;;;;;;;;10.70;100.00;96353.81;6148469;23;20467;-76
2023/12/30 11:35:56;;;;;;;0.30;0.30;;;;;;;11.14;100.00;96349.16;6173632;23;19919;-75
2023/12/30 11:38:47;;;;;;;0.47;0.40;;;;;;;12.86;100.00;96337.00;6170206;23;20053;-76
2023/12/30 11:41:34;;;;;;;0.20;0.20;;;;;;;12.73;100.00;96332.13;6172231;23;20452;-74
2023/12/30 11:44:21;;;;;;;0.10;0.10;;;;;;;10.79;100.00;96340.78;6171284;23;20021;-76
2023/12/30 11:47:07;;;;;;;0.30;0.30;;;;;;;10.61;100.00;96341.94;6170276;23;20021;-77
2023/12/30 11:50:09;;;;;;;0.30;0.30;;;;;;;11.76;100.00;96331.69;6171201;23;20053;-77
2023/12/30 11:52:56;;;;;;;0.32;0.32;;;;;;;12.85;100.00;96329.22;6171571;23;20424;-75
2023/12/30 11:55:43;;;;;;;0.40;0.40;;;;;;;13.57;100.00;96329.00;6149346;23;20448;-76
2023/12/30 11:58:29;;;;;;;0.30;0.30;;;;;;;12.78;100.00;96319.53;6170511;23;20025;-75
2023/12/30 12:01:17;;;;;;;0.30;0.30;;;;;;;14.77;96.09;96316.53;6172530;23;20494;-78
2023/12/30 12:04:03;;;;;;;0.30;0.30;;;;;;;13.93;98.96;96316.31;6168025;23;20032;-79
2023/12/30 12:06:48;;;;;;;0.40;0.40;;;;;;;13.59;100.00;96320.66;6171989;23;20040;-75
2023/12/30 12:09:34;;;;;;;0.38;0.38;;;;;;;16.74;93.44;96309.59;6172364;23;20021;-78
2023/12/30 12:12:22;;;;;;;0.30;0.30;;;;;;;18.41;82.32;96318.69;6172364;23;20103;-77
2023/12/30 12:15:08;;;;;;;0.30;0.30;;;;;;;19.33;69.73;96306.69;6170929;23;20029;-75
2023/12/30 12:17:56;;;;;;;0.20;0.20;;;;;;;17.32;72.59;96314.66;6170541;23;20021;-75
2023/12/30 12:20:45;;;;;;;0.30;0.30;;;;;;;14.64;95.47;96317.97;6171205;23;20025;-76
2023/12/30 12:23:32;;;;;;;0.30;0.30;;;;;;;16.80;85.43;96315.69;6171558;23;20017;-75
2023/12/30 12:26:18;;;;;;;0.30;0.30;;;;;;;15.49;82.21;96320.34;6171730;23;20025;-76
2023/12/30 12:29:04;;;;;;;0.22;0.20;;;;;;;14.82;98.78;96316.50;6147360;23;20096;-75
2023/12/30 12:31:50;;;;;;;0.20;0.20;;;;;;;13.87;97.15;96319.28;6170525;23;20048;-76
2023/12/30 12:34:36;;;;;;;0.20;0.20;;;;;;;12.92;100.00;96333.25;6171239;23;20096;-75
2023/12/30 12:37:22;;;;;;;0.20;0.20;;;;;;;11.24;100.00;96324.34;6170737;23;20027;-77
2023/12/30 12:40:12;;;;;;;0.20;0.20;;;;;;;9.90;100.00;96325.81;6172324;23;20035;-76
2023/12/30 12:42:58;;;;;;;0.13;0.13;;;;;;;9.46;100.00;96323.03;6170088;23;20084;-75
2023/12/30 12:45:44;;;;;;;0.20;0.20;;;;;;;9.70;100.00;96321.00;6169694;23;20091;-77
2023/12/30 12:48:30;;;;;;;0.20;0.20;;;;;;;10.15;100.00;96309.28;6170009;23;20469;-77
2023/12/30 12:51:16;;;;;;;0.30;0.30;;;;;;;10.24;100.00;96302.47;6171226;23;20024;-76
2023/12/30 12:54:02;;;;;;;0.20;0.20;;;;;;;10.45;100.00;96286.66;6146989;23;20079;-78
2023/12/30 12:56:48;;;;;;;0.20;0.20;;;;;;;10.70;100.00;96294.94;6170897;23;20403;-76
2023/12/30 12:59:34;;;;;;;0.22;0.20;;;;;;;10.55;100.00;96284.88;6168890;23;20025;-76
2023/12/30 13:02:20;;;;;;;0.30;0.20;;;;;;;10.16;100.00;96273.47;6148617;23;20020;-76